Time;durP1;ratioP1;P1;durP2;ratioP2;P2;SDS_P1;SDS_P2;PMS_P1;PMS_P2;Temp;Humidity;BMP_temperature;BMP_pressure;BME280_temperature;BME280_humidity;BME280_pressure;Samples;Min_cycle;Max_cycle;Signal;HPM_P1;HPM_P2
2023/08/22 00:03:09;;;;;;;7.00;2.35;;;25.70;75.30;;;;;;7387353;19;20032;-80
2023/08/22 00:05:37;;;;;;;4.03;2.03;;;25.70;75.40;;;;;;7412062;19;20020;-80
2023/08/22 00:08:07;;;;;;;7.35;2.10;;;25.70;75.40;;;;;;7390702;19;20003;-81
2023/08/22 00:10:36;;;;;;;5.95;2.20;;;25.70;76.60;;;;;;7389439;19;20023;-81
2023/08/22 00:13:06;;;;;;;4.95;2.10;;;25.70;75.60;;;;;;7389994;19;20013;-81
2023/08/22 00:15:35;;;;;;;6.93;2.10;;;25.70;75.30;;;;;;7388503;19;20014;-79
2023/08/22 00:21:18;;;;;;;7.40;1.90;;;25.70;75.60;;;;;;7389839;19;19998;-81
2023/08/22 00:23:47;;;;;;;6.78;2.33;;;25.70;75.60;;;;;;7388280;19;20078;-80
2023/08/22 00:26:16;;;;;;;6.47;2.30;;;25.70;76.20;;;;;;7411819;19;20007;-80
2023/08/22 00:28:47;;;;;;;6.78;2.20;;;25.60;75.10;;;;;;7390055;19;20023;-80
2023/08/22 00:31:15;;;;;;;5.13;2.00;;;25.50;74.90;;;;;;7390220;19;20006;-81
2023/08/22 00:33:44;;;;;;;4.13;1.85;;;25.60;74.60;;;;;;7390863;19;20003;-80
2023/08/22 00:39:56;;;;;;;5.82;2.13;;;25.50;74.60;;;;;;7389784;19;20013;-81
2023/08/22 00:42:29;;;;;;;10.13;2.05;;;25.40;74.60;;;;;;7389570;19;20010;-82
2023/08/22 00:45:15;;;;;;;10.15;2.00;;;25.40;74.80;;;;;;7389618;19;20011;-82
2023/08/22 01:37:52;;;;;;;3.28;1.95;;;25.40;77.80;;;;;;6826332;19;5725282;-82
2023/08/22 01:40:32;;;;;;;5.60;2.30;;;25.30;77.70;;;;;;7422794;19;20017;-81
2023/08/22 01:43:14;;;;;;;7.15;2.30;;;25.30;77.60;;;;;;7421280;19;20005;-81
2023/08/22 01:45:50;;;;;;;3.05;2.00;;;25.30;77.90;;;;;;7422487;19;20026;-81
2023/08/22 01:48:31;;;;;;;6.95;2.50;;;25.30;77.90;;;;;;7422786;19;20014;-81
2023/08/22 01:51:03;;;;;;;23.63;13.00;;;25.30;78.00;;;;;;7419601;19;20006;-81
2023/08/22 01:54:01;;;;;;;;;;;;;;;;;;;;;
2023/08/22 01:57:08;;;;;;;11.52;4.53;;;25.20;78.30;;;;;;7398698;19;20829;-82
2023/08/22 02:06:28;;;;;;;11.65;2.92;;;25.20;78.60;;;;;;7389099;19;20061;-80
2023/08/22 02:28:56;;;;;;;4.03;2.03;;;25.00;78.60;;;;;;7276066;19;3060280;-81
2023/08/22 02:31:27;;;;;;;5.07;1.98;;;24.90;78.90;;;;;;7426047;19;20069;-81
2023/08/22 02:34:15;;;;;;;8.15;2.17;;;24.90;79.10;;;;;;7425494;19;20110;-82
2023/08/22 02:36:50;;;;;;;6.38;1.95;;;24.80;79.20;;;;;;7424345;19;20020;-82
2023/08/22 02:39:28;;;;;;;3.15;1.83;;;24.80;79.40;;;;;;7425111;19;20030;-81
2023/08/22 02:42:16;;;;;;;10.10;2.72;;;24.80;79.40;;;;;;7424332;19;20676;-81
2023/08/22 02:44:47;;;;;;;5.47;2.75;;;24.80;79.20;;;;;;7428505;19;20010;-82
2023/08/22 02:47:16;;;;;;;5.85;1.70;;;24.80;79.20;;;;;;7447275;19;20029;-82
2023/08/22 02:49:45;;;;;;;4.43;1.80;;;24.80;78.30;;;;;;7433646;19;20089;-81
2023/08/22 03:12:33;;;;;;;5.93;1.85;;;24.60;80.10;;;;;;7210434;19;2004263;-81
2023/08/22 03:15:02;;;;;;;8.38;1.77;;;24.60;80.20;;;;;;7416464;19;20020;-81
2023/08/22 05:27:56;;;;;;;8.00;2.55;;;24.10;82.60;;;;;;3570609;19;3095548;-80
2023/08/22 06:03:02;;;;;;;8.10;2.75;;;24.60;81.90;;;;;;5146310;19;18774724;-81
2023/08/22 06:05:34;;;;;;;11.70;2.40;;;24.60;82.10;;;;;;7446124;19;20095;-81
2023/08/22 06:08:08;;;;;;;30.02;4.00;;;24.70;82.00;;;;;;7426609;19;20010;-81
2023/08/22 06:10:39;;;;;;;15.27;3.38;;;24.70;83.10;;;;;;7423861;19;20013;-81
2023/08/22 06:13:07;;;;;;;17.70;3.30;;;24.80;83.20;;;;;;7423497;19;20017;-80
2023/08/22 06:15:38;;;;;;;16.83;3.42;;;24.90;83.30;;;;;;7422499;19;20009;-81
2023/08/22 06:18:10;;;;;;;10.97;3.13;;;24.90;83.10;;;;;;7426803;19;20006;-80
2023/08/22 06:20:42;;;;;;;19.77;3.35;;;24.90;83.00;;;;;;7449389;19;20328;-80
2023/08/22 06:23:11;;;;;;;7.80;2.88;;;24.90;82.20;;;;;;7427220;19;20025;-81
2023/08/22 06:25:40;;;;;;;9.65;2.50;;;24.90;81.00;;;;;;7427265;19;20010;-81
2023/08/22 06:28:08;;;;;;;12.82;2.95;;;24.90;80.20;;;;;;7427223;19;20074;-80
2023/08/22 06:30:48;;;;;;;10.57;2.33;;;25.00;80.00;;;;;;7425895;19;20010;-81
2023/08/22 06:33:38;;;;;;;10.05;2.72;;;25.00;80.00;;;;;;7426291;19;20014;-82
2023/08/22 06:36:07;;;;;;;17.08;3.10;;;25.10;80.40;;;;;;7436410;19;20005;-82
2023/08/22 06:38:51;;;;;;;10.48;2.65;;;25.20;80.50;;;;;;7459767;19;20010;-81
2023/08/22 07:25:00;;;;;;;13.70;2.53;;;25.70;78.60;;;;;;7388546;19;20022;-80
2023/08/22 07:27:46;;;;;;;17.90;2.45;;;25.70;78.60;;;;;;7384438;19;20055;-81
2023/08/22 07:30:26;;;;;;;5.30;2.25;;;25.70;78.30;;;;;;7388445;19;20014;-80
2023/08/22 07:32:55;;;;;;;13.55;2.97;;;25.80;78.00;;;;;;7386514;19;20017;-80
2023/08/22 07:35:24;;;;;;;11.00;2.40;;;25.90;77.70;;;;;;7405492;19;20361;-79
2023/08/22 07:37:53;;;;;;;7.68;1.90;;;25.90;77.80;;;;;;7386294;19;20017;-77
2023/08/22 07:40:22;;;;;;;6.85;2.63;;;25.90;77.70;;;;;;7382322;19;20074;-76
2023/08/22 07:43:08;;;;;;;8.23;2.42;;;26.00;77.80;;;;;;7383709;19;20024;-79
2023/08/22 07:45:36;;;;;;;10.43;2.28;;;26.10;77.70;;;;;;7382697;19;20024;-75
2023/08/22 07:48:06;;;;;;;7.78;2.25;;;26.20;77.70;;;;;;7382289;19;20011;-76
2023/08/22 07:50:34;;;;;;;11.95;2.47;;;26.20;77.60;;;;;;7403825;19;20023;-76
2023/08/22 07:53:04;;;;;;;7.80;2.20;;;26.30;77.10;;;;;;7380925;19;20410;-77
2023/08/22 07:55:33;;;;;;;7.38;2.13;;;26.40;76.50;;;;;;7380703;19;20006;-76
2023/08/22 07:58:02;;;;;;;5.28;1.92;;;26.40;76.40;;;;;;7380292;19;20058;-76
2023/08/22 08:00:33;;;;;;;6.13;1.90;;;26.40;77.00;;;;;;7380633;19;20010;-76
2023/08/22 08:03:08;;;;;;;8.45;2.10;;;26.50;75.60;;;;;;7385446;19;20023;-82
2023/08/22 08:05:38;;;;;;;3.15;1.63;;;26.50;75.30;;;;;;7409192;19;20003;-79
2023/08/22 08:08:09;;;;;;;6.97;2.03;;;26.60;75.30;;;;;;7386940;19;20369;-78
2023/08/22 08:10:38;;;;;;;9.30;1.73;;;26.60;75.20;;;;;;7386227;19;20010;-79
2023/08/22 08:13:07;;;;;;;10.30;2.38;;;26.60;75.00;;;;;;7385081;19;20007;-79
2023/08/22 08:15:39;;;;;;;4.18;2.00;;;26.70;75.00;;;;;;7382773;19;20212;-80
2023/08/22 08:18:10;;;;;;;4.80;1.77;;;26.70;74.70;;;;;;7385700;19;20411;-78
2023/08/22 08:20:38;;;;;;;8.00;1.88;;;26.70;74.50;;;;;;7408259;19;20680;-78
2023/08/22 08:23:07;;;;;;;7.72;1.83;;;26.70;74.10;;;;;;7381242;19;20379;-76
2023/08/22 08:25:36;;;;;;;6.97;1.88;;;26.80;73.70;;;;;;7380210;19;20237;-78
2023/08/22 08:28:05;;;;;;;5.80;2.03;;;26.80;73.60;;;;;;7382748;19;20437;-77
2023/08/22 08:30:40;;;;;;;7.68;1.90;;;26.80;73.60;;;;;;7388606;19;20002;-80
2023/08/22 08:33:11;;;;;;;7.35;1.95;;;26.90;74.40;;;;;;7401724;19;20002;-79
2023/08/22 08:35:40;;;;;;;5.85;1.83;;;26.90;74.10;;;;;;7425923;19;20019;-78
2023/08/22 08:38:09;;;;;;;7.82;1.90;;;26.90;73.60;;;;;;7386778;19;20025;-76
2023/08/22 08:40:39;;;;;;;7.80;1.92;;;27.00;73.70;;;;;;7381911;19;20023;-75
2023/08/22 08:43:08;;;;;;;10.43;2.47;;;27.00;73.70;;;;;;7380427;19;20019;-77
2023/08/22 08:45:41;;;;;;;5.97;1.70;;;27.10;73.40;;;;;;7382149;19;20014;-77
2023/08/22 08:48:10;;;;;;;8.00;1.77;;;27.00;72.80;;;;;;7384745;19;20042;-78
2023/08/22 08:50:40;;;;;;;6.00;1.60;;;27.00;72.50;;;;;;7404103;19;20018;-78
2023/08/22 08:53:09;;;;;;;5.00;1.80;;;27.10;72.50;;;;;;7381139;19;20009;-77
2023/08/22 08:55:38;;;;;;;9.73;1.70;;;27.10;72.90;;;;;;7378695;19;20292;-76
2023/08/22 08:58:07;;;;;;;5.53;1.70;;;27.10;72.80;;;;;;7379742;19;20011;-76
2023/08/22 09:00:36;;;;;;;7.38;1.70;;;27.10;72.90;;;;;;7379923;19;20476;-75
2023/08/22 09:03:08;;;;;;;5.68;1.55;;;27.20;73.10;;;;;;7378208;19;20278;-75
2023/08/22 09:05:37;;;;;;;8.73;1.77;;;27.20;72.40;;;;;;7400662;19;20247;-79
2023/08/22 09:08:23;;;;;;;7.18;1.90;;;27.20;71.40;;;;;;7381073;19;20003;-77
2023/08/22 09:10:53;;;;;;;6.72;1.77;;;27.30;71.30;;;;;;7379120;19;20385;-77
2023/08/22 09:13:32;;;;;;;4.53;1.60;;;27.20;71.40;;;;;;7378666;19;20009;-76
2023/08/22 09:16:02;;;;;;;7.85;1.63;;;27.30;71.90;;;;;;7378647;19;20023;-76
2023/08/22 09:18:34;;;;;;;11.30;2.00;;;27.30;70.90;;;;;;7379017;19;20020;-77
2023/08/22 09:21:05;;;;;;;7.88;1.52;;;27.30;70.90;;;;;;7378589;19;20011;-76
2023/08/22 09:23:34;;;;;;;8.93;1.40;;;27.30;70.30;;;;;;7400658;19;20013;-77
2023/08/22 09:26:04;;;;;;;11.98;1.70;;;27.40;69.80;;;;;;7379312;19;20041;-77
2023/08/22 09:28:33;;;;;;;8.07;1.67;;;27.40;69.40;;;;;;7379108;19;20006;-78
2023/08/22 09:31:02;;;;;;;4.22;1.58;;;27.40;68.70;;;;;;7379320;19;20704;-77
2023/08/22 09:33:46;;;;;;;8.13;1.48;;;27.40;68.40;;;;;;7379883;19;20010;-77
2023/08/22 09:36:15;;;;;;;5.35;1.50;;;27.40;68.20;;;;;;7379516;19;20007;-77
2023/08/22 09:38:53;;;;;;;5.95;1.35;;;27.40;67.90;;;;;;7379296;19;20031;-75
2023/08/22 09:41:25;;;;;;;3.30;1.15;;;27.40;67.00;;;;;;7400160;19;20019;-76
2023/08/22 09:43:58;;;;;;;9.18;1.42;;;27.40;66.90;;;;;;7378213;19;20400;-77
2023/08/22 09:46:27;;;;;;;5.85;1.42;;;27.50;66.60;;;;;;7379998;19;19999;-80
2023/08/22 09:49:02;;;;;;;4.80;1.50;;;27.50;66.60;;;;;;7385128;19;20369;-80
2023/08/22 09:51:32;;;;;;;9.00;1.73;;;27.50;66.60;;;;;;7383755;19;20006;-79
2023/08/22 09:54:03;;;;;;;5.07;1.50;;;27.50;67.30;;;;;;7383531;19;20022;-78
2023/08/22 09:56:37;;;;;;;5.80;1.30;;;27.50;66.10;;;;;;7404009;19;20075;-80
2023/08/22 09:59:07;;;;;;;11.32;1.48;;;27.50;65.80;;;;;;7382803;19;20283;-80
2023/08/22 10:01:43;;;;;;;4.05;1.58;;;27.60;65.90;;;;;;7382746;19;20076;-80
2023/08/22 10:04:20;;;;;;;4.93;2.03;;;27.60;65.90;;;;;;7385565;19;20007;-84
2023/08/22 10:06:59;;;;;;;5.88;1.50;;;27.60;66.20;;;;;;7385130;19;20002;-82
2023/08/22 10:10:07;;;;;;;4.28;1.42;;;27.60;66.30;;;;;;7384271;19;20010;-84
2023/08/22 10:13:27;;;;;;;5.85;1.85;;;27.70;66.90;;;;;;7385856;19;20029;-86
2023/08/22 10:15:56;;;;;;;3.22;1.17;;;27.80;66.30;;;;;;7385420;19;20011;-78
2023/08/22 10:18:26;;;;;;;3.42;1.30;;;27.80;65.90;;;;;;7379480;19;20011;-77
2023/08/22 10:20:59;;;;;;;6.88;1.83;;;27.80;65.80;;;;;;7377510;19;20035;-78
2023/08/22 10:23:58;;;;;;;6.55;1.50;;;27.80;65.70;;;;;;7416307;19;20019;-78
2023/08/22 10:26:30;;;;;;;4.05;1.70;;;27.90;65.10;;;;;;7394442;19;20011;-77
2023/08/22 10:29:14;;;;;;;11.55;1.67;;;27.90;65.30;;;;;;7390811;19;20067;-77
2023/08/22 10:32:13;;;;;;;7.00;1.70;;;28.00;66.00;;;;;;7387970;19;20309;-78
2023/08/22 10:35:24;;;;;;;7.50;1.85;;;28.00;65.10;;;;;;7385900;19;20007;-77
2023/08/22 10:37:56;;;;;;;5.80;1.80;;;28.00;64.90;;;;;;7383048;19;20054;-77
2023/08/22 10:40:33;;;;;;;8.73;1.75;;;28.00;65.10;;;;;;7387015;19;20334;-77
2023/08/22 10:43:22;;;;;;;6.72;1.63;;;28.10;65.70;;;;;;7386138;19;20247;-78
2023/08/22 10:45:53;;;;;;;6.03;1.40;;;28.10;66.20;;;;;;7383945;19;20373;-78
2023/08/22 10:48:23;;;;;;;1.90;1.50;;;28.20;65.40;;;;;;7384884;19;20011;-77
2023/08/22 10:50:53;;;;;;;3.53;2.10;;;28.30;64.60;;;;;;7383928;19;20023;-76
2023/08/22 10:53:29;;;;;;;7.10;2.20;;;28.30;65.80;;;;;;7405866;19;20327;-77
2023/08/22 10:55:58;;;;;;;10.60;2.00;;;28.30;65.90;;;;;;7382730;19;20019;-76
2023/08/22 10:58:42;;;;;;;13.52;1.83;;;28.40;63.70;;;;;;7383874;19;20018;-77
2023/08/22 11:01:14;;;;;;;4.03;1.70;;;28.40;63.80;;;;;;7385491;19;20027;-80
2023/08/22 11:03:43;;;;;;;11.75;2.05;;;28.50;64.90;;;;;;7382705;19;20272;-77
2023/08/22 11:06:14;;;;;;;5.10;1.52;;;28.50;65.30;;;;;;7382116;19;20402;-76
2023/08/22 11:08:46;;;;;;;5.07;1.70;;;28.60;64.30;;;;;;7398576;19;20010;-78
2023/08/22 11:11:16;;;;;;;5.88;2.10;;;28.60;63.00;;;;;;7403410;19;20011;-79
2023/08/22 11:13:46;;;;;;;11.30;2.05;;;28.70;63.80;;;;;;7385076;19;20047;-77
2023/08/22 11:16:16;;;;;;;17.67;2.13;;;28.70;64.60;;;;;;7384053;19;20059;-78
2023/08/22 11:18:51;;;;;;;8.37;1.87;;;28.80;64.40;;;;;;7383008;19;20020;-79
2023/08/22 11:21:20;;;;;;;4.47;1.83;;;28.80;64.20;;;;;;7385841;19;20011;-80
2023/08/22 11:23:52;;;;;;;6.50;2.00;;;28.90;64.40;;;;;;7385587;19;20010;-78
2023/08/22 11:26:23;;;;;;;9.25;1.70;;;29.00;64.80;;;;;;7405174;19;20011;-76
2023/08/22 11:28:52;;;;;;;5.22;1.50;;;29.00;64.30;;;;;;7382609;19;20223;-76
2023/08/22 11:31:21;;;;;;;4.32;1.77;;;29.00;64.10;;;;;;7382247;19;20031;-76
2023/08/22 11:33:52;;;;;;;10.30;1.98;;;29.10;63.60;;;;;;7382156;19;20015;-76
2023/08/22 11:36:23;;;;;;;6.18;1.67;;;29.20;64.40;;;;;;7382193;19;20006;-77
2023/08/22 11:38:54;;;;;;;5.68;1.98;;;29.20;64.90;;;;;;7382043;19;20362;-75
2023/08/22 11:41:23;;;;;;;6.35;2.03;;;29.30;64.40;;;;;;7403627;19;20291;-77
2023/08/22 11:43:59;;;;;;;6.05;1.98;;;29.30;63.90;;;;;;7381645;19;20014;-78
2023/08/22 11:46:28;;;;;;;5.53;1.88;;;29.40;64.00;;;;;;7379738;19;20002;-77
2023/08/22 11:48:56;;;;;;;4.75;2.00;;;29.40;63.80;;;;;;7382362;19;20394;-76
2023/08/22 11:51:25;;;;;;;7.38;1.50;;;29.50;64.50;;;;;;7382302;19;20011;-77
2023/08/22 11:53:57;;;;;;;8.00;2.08;;;29.50;64.10;;;;;;7381781;19;20010;-76
2023/08/22 11:56:26;;;;;;;6.18;2.15;;;29.60;63.90;;;;;;7403032;19;20023;-76
2023/08/22 11:58:55;;;;;;;4.78;2.22;;;29.60;64.20;;;;;;7381114;19;20062;-77
2023/08/22 12:01:25;;;;;;;6.60;2.13;;;29.70;64.40;;;;;;7381533;19;20090;-77
2023/08/22 12:03:59;;;;;;;7.28;1.70;;;29.70;64.40;;;;;;7380556;19;20061;-76
2023/08/22 12:06:28;;;;;;;9.77;2.30;;;29.70;64.30;;;;;;7384950;19;20352;-77
2023/08/22 12:09:03;;;;;;;6.13;1.90;;;29.80;64.20;;;;;;7380004;19;20011;-76
2023/08/22 12:11:31;;;;;;;6.55;2.10;;;29.90;63.80;;;;;;7404071;19;20086;-78
2023/08/22 12:14:00;;;;;;;6.85;1.90;;;29.90;63.40;;;;;;7382552;19;20400;-77
2023/08/22 12:16:29;;;;;;;5.32;1.90;;;29.90;63.60;;;;;;7383618;19;20006;-76
2023/08/22 12:18:58;;;;;;;3.97;1.83;;;30.00;63.70;;;;;;7390586;19;20363;-76
2023/08/22 12:21:34;;;;;;;5.90;2.05;;;30.00;62.30;;;;;;7384142;19;20031;-83
2023/08/22 12:24:39;;;;;;;5.30;2.40;;;30.10;61.90;;;;;;7405949;19;19999;-87
2023/08/22 12:27:15;;;;;;;11.75;2.20;;;30.10;63.20;;;;;;7407055;19;20006;-82
2023/08/22 12:30:20;;;;;;;6.53;2.00;;;30.20;63.10;;;;;;7407482;19;20003;-86
2023/08/22 12:32:49;;;;;;;13.38;2.90;;;30.30;63.00;;;;;;7385771;19;20003;-80
2023/08/22 12:35:18;;;;;;;9.95;2.25;;;30.30;62.70;;;;;;7404296;19;20023;-78
2023/08/22 12:37:47;;;;;;;4.78;1.90;;;30.30;62.10;;;;;;7383661;19;20003;-80
2023/08/22 12:40:20;;;;;;;11.55;3.40;;;30.30;62.50;;;;;;7383910;19;19998;-81
2023/08/22 12:42:52;;;;;;;6.85;2.42;;;30.40;63.80;;;;;;7384500;19;20041;-80
2023/08/22 12:45:21;;;;;;;11.23;2.78;;;30.40;63.60;;;;;;7385371;19;20051;-81
2023/08/22 12:47:52;;;;;;;9.55;2.10;;;30.40;62.70;;;;;;7383988;19;20007;-79
2023/08/22 12:50:31;;;;;;;5.25;2.28;;;30.40;62.60;;;;;;7408257;19;20018;-80
2023/08/22 12:53:10;;;;;;;;;;;;;;;;;;;;;
2023/08/22 12:55:43;;;;;;;6.75;2.10;;;30.40;63.00;;;;;;7405878;19;20017;-78
2023/08/22 12:58:14;;;;;;;6.63;2.38;;;30.50;62.80;;;;;;7384381;19;20003;-79
2023/08/22 13:00:43;;;;;;;12.38;2.42;;;30.60;62.50;;;;;;7384380;19;20609;-78
2023/08/22 13:03:11;;;;;;;4.10;2.17;;;30.70;61.60;;;;;;7381826;19;20094;-79
2023/08/22 13:05:40;;;;;;;18.30;2.83;;;30.70;62.20;;;;;;7404460;19;20103;-81
2023/08/22 13:08:09;;;;;;;7.05;2.30;;;30.80;61.10;;;;;;7384653;19;20028;-80
2023/08/22 13:10:38;;;;;;;5.22;2.13;;;30.90;60.70;;;;;;7384613;19;20007;-80
2023/08/22 13:37:05;;;;;;;8.18;2.80;;;31.40;60.70;;;;;;7364962;19;20011;-80
2023/08/22 13:39:34;;;;;;;6.63;2.22;;;31.60;61.40;;;;;;7384014;19;20033;-79
2023/08/22 13:42:03;;;;;;;26.45;2.80;;;31.60;60.80;;;;;;7382236;19;20022;-80
2023/08/22 13:44:45;;;;;;;4.32;2.50;;;31.60;61.20;;;;;;7403028;19;20027;-82
2023/08/22 13:47:16;;;;;;;5.70;2.67;;;31.70;60.40;;;;;;7384560;19;19999;-82
2023/08/22 13:49:56;;;;;;;;;;;31.70;60.50;;;;;;7383223;19;20421;-81
2023/08/22 13:52:37;;;;;;;8.25;2.78;;;31.70;59.60;;;;;;7383081;19;19911;-81
2023/08/22 13:55:24;;;;;;;8.45;2.90;;;31.80;59.20;;;;;;7383472;19;20003;-84
2023/08/22 14:01:06;;;;;;;6.38;2.85;;;31.90;59.30;;;;;;7318123;19;20022;-79
2023/08/22 14:03:58;;;;;;;;;;;31.90;59.40;;;;;;7398316;19;20003;-82
2023/08/22 14:06:27;;;;;;;5.03;2.17;;;31.90;59.60;;;;;;7396088;19;19931;-77
2023/08/22 14:08:59;;;;;;;4.55;2.63;;;32.00;60.00;;;;;;7386950;19;20062;-77
2023/08/22 14:11:37;;;;;;;;;;;;;;;;;;;;;
2023/08/22 14:14:06;;;;;;;10.82;3.40;;;32.20;59.50;;;;;;7388722;19;20019;-79
2023/08/22 14:16:47;;;;;;;10.10;2.70;;;32.20;59.20;;;;;;7413463;19;20006;-82
2023/08/22 14:22:43;;;;;;;4.45;2.55;;;32.40;58.70;;;;;;7387983;19;20062;-81
2023/08/22 14:25:44;;;;;;;5.75;2.95;;;32.40;59.00;;;;;;7388543;19;20014;-84
2023/08/22 14:28:16;;;;;;;4.28;2.80;;;32.40;58.80;;;;;;7387347;19;20006;-81
2023/08/22 14:31:12;;;;;;;11.13;2.53;;;32.50;58.60;;;;;;7411647;19;20251;-91
2023/08/22 14:33:41;;;;;;;8.93;3.10;;;32.60;59.00;;;;;;7382294;19;20015;-81
2023/08/22 14:36:13;;;;;;;5.70;2.65;;;32.60;59.10;;;;;;7390402;19;20273;-84
2023/08/22 14:39:00;;;;;;;10.15;2.83;;;32.70;58.90;;;;;;7408002;19;20007;-84
2023/08/22 14:41:40;;;;;;;6.50;2.65;;;32.70;59.30;;;;;;7390017;19;20063;-84
2023/08/22 14:44:12;;;;;;;18.47;2.70;;;32.80;59.00;;;;;;7388258;19;20007;-81
2023/08/22 14:47:07;;;;;;;9.10;2.90;;;32.90;59.30;;;;;;7386239;19;20015;-80
2023/08/22 15:05:22;;;;;;;7.38;2.90;;;32.70;57.70;;;;;;7386351;19;20411;-81
2023/08/22 15:07:50;;;;;;;15.00;2.92;;;32.50;58.40;;;;;;7406766;19;20006;-80
2023/08/22 15:10:19;;;;;;;10.30;3.10;;;32.40;59.10;;;;;;7381852;19;20063;-80
2023/08/22 15:12:49;;;;;;;6.45;2.70;;;32.40;59.10;;;;;;7383460;19;20023;-81
2023/08/22 15:25:19;;;;;;;12.45;3.10;;;32.90;59.20;;;;;;7417276;19;19975;-90
2023/08/22 15:37:42;;;;;;;10.70;3.20;;;33.10;57.90;;;;;;7413117;19;20327;-81
2023/08/22 15:40:29;;;;;;;10.02;2.78;;;33.10;58.20;;;;;;7384374;19;20010;-82
2023/08/22 15:42:58;;;;;;;9.57;2.90;;;33.10;56.90;;;;;;7383378;19;20231;-80
2023/08/22 15:49:07;;;;;;;6.88;3.08;;;33.30;57.80;;;;;;7391929;19;20013;-79
2023/08/22 15:51:36;;;;;;;9.57;3.80;;;33.30;57.50;;;;;;7394266;19;20011;-79
2023/08/22 15:54:05;;;;;;;8.82;3.30;;;33.50;57.20;;;;;;7382484;19;20006;-80
2023/08/22 15:56:36;;;;;;;9.20;3.17;;;33.50;57.50;;;;;;7402759;19;20016;-81
2023/08/22 15:59:06;;;;;;;6.50;3.38;;;33.60;57.00;;;;;;7380895;19;20007;-80
2023/08/22 16:01:34;;;;;;;6.13;3.45;;;33.60;56.50;;;;;;7379927;19;20032;-80
2023/08/22 16:04:03;;;;;;;7.22;2.83;;;33.70;56.30;;;;;;7381144;19;20016;-81
2023/08/22 16:06:32;;;;;;;10.57;2.72;;;33.70;56.20;;;;;;7380948;19;20299;-81
2023/08/22 16:09:01;;;;;;;8.05;3.30;;;33.80;56.10;;;;;;7382349;19;20006;-80
2023/08/22 16:11:29;;;;;;;8.30;3.00;;;33.90;56.70;;;;;;7405916;19;20078;-81
2023/08/22 16:14:01;;;;;;;5.18;2.90;;;34.00;56.30;;;;;;7383879;19;20275;-79
2023/08/22 16:16:29;;;;;;;6.15;2.83;;;34.30;55.70;;;;;;7384694;19;20007;-79
2023/08/22 16:18:58;;;;;;;5.32;2.72;;;34.70;54.70;;;;;;7383411;19;20052;-80
2023/08/22 16:21:27;;;;;;;7.68;2.92;;;35.30;53.50;;;;;;7384867;19;20030;-81
2023/08/22 16:23:57;;;;;;;7.95;2.85;;;36.00;53.00;;;;;;7385451;19;20003;-80
2023/08/22 16:26:28;;;;;;;4.78;2.72;;;36.90;52.20;;;;;;7404498;19;20222;-81
2023/08/22 16:29:00;;;;;;;11.80;3.13;;;37.60;50.40;;;;;;7384419;19;20002;-80
2023/08/22 16:31:30;;;;;;;13.50;3.33;;;38.50;51.30;;;;;;7385006;19;20265;-81
2023/08/22 16:34:02;;;;;;;6.22;2.65;;;39.20;50.10;;;;;;7383975;19;20053;-82
2023/08/22 16:36:31;;;;;;;7.32;3.17;;;39.80;49.80;;;;;;7384556;19;20070;-80
2023/08/22 16:39:00;;;;;;;5.18;2.60;;;40.30;50.50;;;;;;7383295;19;20026;-81
2023/08/22 16:41:29;;;;;;;7.72;3.05;;;40.70;49.50;;;;;;7402846;19;20007;-81
2023/08/22 16:44:00;;;;;;;9.32;3.20;;;41.10;48.30;;;;;;7382489;19;20002;-81
2023/08/22 16:46:29;;;;;;;7.15;3.13;;;41.30;46.60;;;;;;7385004;19;20024;-81
2023/08/22 16:49:01;;;;;;;8.88;3.20;;;41.50;46.80;;;;;;7382838;19;20076;-80
2023/08/22 16:51:31;;;;;;;10.27;2.85;;;41.80;47.50;;;;;;7383919;19;20006;-80
2023/08/22 16:54:08;;;;;;;10.70;2.90;;;41.90;47.40;;;;;;7382570;19;20029;-79
2023/08/22 16:56:36;;;;;;;6.15;2.90;;;41.90;46.50;;;;;;7403997;19;20002;-77
2023/08/22 16:59:08;;;;;;;13.48;2.97;;;42.00;47.60;;;;;;7381449;19;20060;-78
2023/08/22 17:01:52;;;;;;;5.75;2.80;;;42.20;47.60;;;;;;7379982;19;20260;-81
2023/08/22 17:04:20;;;;;;;5.50;2.60;;;42.30;48.20;;;;;;7383327;19;20003;-78
2023/08/22 17:06:49;;;;;;;6.63;2.47;;;42.30;48.40;;;;;;7381670;19;20377;-78
2023/08/22 17:09:18;;;;;;;8.05;2.50;;;42.10;48.80;;;;;;7380899;19;20006;-78
2023/08/22 17:11:47;;;;;;;5.97;2.55;;;42.00;48.80;;;;;;7383566;19;20014;-79
2023/08/22 17:27:07;;;;;;;8.30;2.83;;;41.10;50.20;;;;;;7381382;19;20358;-82
2023/08/22 18:02:39;;;;;;;;;;;;;;;;;;;;;
2023/08/22 18:32:15;;;;;;;;;;;;;;;;;;;;;
2023/08/22 22:57:11;;;;;;;;;;;;;;;;;;;;;
